Latest Coastal Weather Observations for Flinders Island Airport

IDT60701

Issued at 10:52 pm EDT Thursday 23 February 2017 (issued every 10 minutes, with the page automatically refreshed every 10 minutes)

About coastal observations | Map of coastal stations | Coastal observations for TAS | Marine services | Other Formats
Station Details ID: 099005 Name: FLINDERS ISLAND AIRPORT Lat: -40.09 Lon: 148.00 Height: 9.0 m
Data from the previous 72 hours. | See also: Recent months at Flinders Island Airport
Date/Time
EDT
Temp
°C
Wind Pressure Rain since
9am
mm
Weather Cloud Vis
km
Sea
Height
m
Swell
Dir  Spd
kts
Gust
kts
hPa Trend Height
m
Period
s
Dir
23/10:30pm 17.5 W 20 26 1019.5 - 0.0 - Cloudy 10 - - - -
23/10:00pm 17.6 W 21 26 1019.5 - 0.0 - Cloudy 10 - - - -
23/09:30pm 17.4 W 19 26 1019.3 - 0.0 - Partly cloudy 10 - - - -
23/09:00pm 17.5 W 20 26 1018.7 - 0.0 - Mostly clear 10 - - - -
23/08:30pm 17.6 W 17 22 1018.1 - 0.0 - Partly cloudy 10 - - - -
23/08:00pm 17.8 WNW 17 22 1017.8 - 0.0 - Partly cloudy 10 - - - -
23/07:30pm 18.3 WNW 18 22 1017.4 - 0.0 - Partly cloudy 10 - - - -
23/07:00pm 18.8 WNW 17 22 1017.3 - 0.0 - Partly cloudy 10 - - - -
23/06:30pm 19.4 W 19 23 1016.9 - 0.0 - - 10 - - - -
23/06:00pm 19.9 W 19 24 1016.8 - 0.0 - - 10 - - - -
23/05:30pm 19.8 WNW 19 23 1016.4 - 0.0 - - 10 - - - -
23/05:00pm 20.1 WNW 18 22 1016.1 - 0.0 - - 10 - - - -
23/04:30pm 20.7 WNW 17 20 1016.0 - 0.0 - Partly cloudy 10 - - - -
23/04:00pm 20.5 WNW 16 20 1016.0 - 0.0 - Partly cloudy 10 - - - -
23/03:30pm 20.9 WNW 18 23 1016.0 - 0.0 - - 10 - - - -
23/03:00pm 20.9 WNW 18 24 1016.0 - 0.0 - Partly cloudy 10 - - - -
23/02:30pm 21.1 W 17 21 1016.1 - 0.0 - - 10 - - - -
23/02:00pm 20.7 WNW 17 21 1016.0 - 0.0 - Partly cloudy 10 - - - -
23/01:30pm 21.4 W 17 22 1015.9 - 0.0 - Partly cloudy 10 - - - -
23/01:00pm 21.5 W 17 21 1015.8 - 0.0 - Partly cloudy 10 - - - -
23/12:30pm 21.4 WNW 16 21 1015.6 - 0.0 - Partly cloudy 10 - - - -
23/12:00pm 20.9 WNW 17 22 1015.4 - 0.0 - - 10 - - - -
23/11:30am 21.1 W 15 20 1015.3 - 0.0 - Partly cloudy 10 - - - -
23/11:00am 21.2 W 16 19 1015.2 - 0.0 - - 10 - - - -
23/10:30am 20.4 W 16 19 1015.1 - 0.0 - - 10 - - - -
23/10:00am 20.1 W 19 23 1014.8 - 0.0 - - 10 - - - -
23/09:30am 20.1 W 19 23 1014.3 - 0.0 - - 10 - - - -
23/09:00am 20.0 W 17 20 1014.0 - 0.0 - - 10 - - - -
23/08:30am 19.5 W 14 16 1013.5 - 0.0 - - 10 - - - -
23/08:00am 19.1 W 15 17 1013.2 - 0.0 - - 10 - - - -
23/07:30am 18.8 W 14 18 1012.9 - 0.0 - - 10 - - - -
23/07:00am 18.4 W 15 18 1012.5 - 0.0 - - 10 - - - -
23/06:30am 18.6 W 15 18 1012.0 - 0.0 - - 10 - - - -
23/06:00am 18.5 W 15 18 1011.6 - 0.0 - - 10 - - - -
23/05:30am 18.3 W 13 16 1011.4 - 0.0 - - 10 - - - -
23/05:00am 18.3 WNW 11 14 1011.1 - 0.0 - - 10 - - - -
23/04:30am 19.1 WNW 12 15 1010.8 - 0.0 - - 10 - - - -
23/04:00am 20.5 NW 13 16 1010.1 - 0.0 - - 10 - - - -
23/03:30am 21.0 NNW 11 18 1009.9 - 0.0 - - 10 - - - -
23/03:11am 20.7 N 21 29 1009.6 - 0.0 - - 10 - - - -
23/03:09am 20.6 NNE 23 30 1009.9 - 0.0 - - 10 - - - -
23/03:00am 20.6 NNE 24 31 1007.9 - 0.0 - - 10 - - - -
23/02:30am 20.7 NNE 25 31 1007.9 - 0.0 - - 10 - - - -
23/02:00am 20.8 NNE 25 31 1008.4 - 0.0 - - 10 - - - -
23/01:30am 20.8 NNE 24 28 1008.7 - 0.0 - - 10 - - - -
23/01:00am 20.8 NE 21 28 1009.1 - 0.0 - - 10 - - - -
23/12:30am 21.1 NNE 22 29 1009.3 - 0.0 - - 10 - - - -
23/12:00am 21.2 NNE 23 30 1010.0 - 0.0 - Mostly clear 10 - - - -
 
Date/Time
EDT
Temp
°C
Wind Pressure Rain since
9am
mm
Weather Cloud Vis
km
Sea
Height
m
Swell
Dir  Spd
kts
Gust
kts
hPa Trend Height
m
Period
s
Dir
22/11:30pm 20.9 NE 21 26 1010.9 - 0.0 - - 10 - - - -
22/11:00pm 20.7 NE 18 23 1011.4 - 0.0 - - 10 - - - -
22/10:30pm 19.7 ENE 13 17 1011.9 - 0.0 - - 10 - - - -
22/10:00pm 19.7 NE 16 21 1012.2 - 0.0 - - 10 - - - -
22/09:30pm 19.6 NE 9 16 1012.3 - 0.0 - - 10 - - - -
22/09:00pm 19.0 ENE 11 15 1012.2 - 0.0 - - 10 - - - -
22/08:30pm 18.7 ENE 8 9 1012.4 - 0.0 - - 10 - - - -
22/08:00pm 19.6 NE 9 12 1012.2 - 0.0 - - 10 - - - -
22/07:30pm 20.6 NE 10 13 1012.1 - 0.0 - - 10 - - - -
22/07:00pm 21.7 NE 12 16 1011.7 - 0.0 - - 10 - - - -
22/06:30pm 22.4 NE 14 18 1012.1 - 0.0 - - 10 - - - -
22/06:00pm 22.8 NE 12 16 1012.1 - 0.0 - - 10 - - - -
22/05:30pm 22.8 NE 16 19 1011.9 - 0.0 - - 10 - - - -
22/05:00pm 23.2 NE 15 19 1012.6 - 0.0 - - 10 - - - -
22/04:30pm 23.9 NE 12 17 1013.3 - 0.0 - Partly cloudy 10 - - - -
22/04:00pm 23.3 NE 13 18 1013.7 - 0.0 - Partly cloudy 10 - - - -
22/03:30pm 24.0 NNE 15 20 1013.9 - 0.0 - - 10 - - - -
22/03:00pm 23.5 NE 15 21 1014.3 - 0.0 - Mostly clear 10 - - - -
22/02:30pm 22.7 NE 16 21 1015.0 - 0.0 - Partly cloudy 10 - - - -
22/02:00pm 22.4 NE 14 20 1015.7 - 0.0 - Partly cloudy 10 - - - -
22/01:30pm 22.5 NE 12 17 1015.8 - 0.0 - Partly cloudy 10 - - - -
22/01:00pm 22.0 NE 13 20 1016.2 - 0.0 - Cloudy 10 - - - -
22/12:30pm 21.4 ENE 14 20 1016.3 - 0.0 - Partly cloudy 10 - - - -
22/12:22pm 22.4 NE 17 27 1016.5 - 0.0 - Partly cloudy 10 - - - -
22/12:00pm 21.6 NE 16 24 1016.9 - 0.0 - Mostly clear 10 - - - -
22/11:30am 22.1 NE 19 24 1016.9 - 0.0 - - 10 - - - -
22/11:00am 21.6 NE 20 27 1017.1 - 0.0 - - 10 - - - -
22/10:30am 21.1 NE 20 26 1017.2 - 0.0 - - 10 - - - -
22/10:00am 20.1 NE 20 25 1017.5 - 0.0 - - 10 - - - -
22/09:30am 18.8 NE 17 22 1017.7 - 0.0 - - 10 - - - -
22/09:00am 18.3 ENE 13 17 1017.9 - 0.0 - - 10 - - - -
22/08:30am 16.6 ENE 9 14 1018.2 - 0.0 - - 10 - - - -
22/08:00am 14.5 SE 4 5 1018.4 - 0.0 - - 10 - - - -
22/07:30am 11.2 ESE 1 5 1018.2 - 0.0 - - 10 - - - -
22/07:00am 9.2 E 3 4 1018.4 - 0.0 - - 10 - - - -
22/06:30am 8.7 NE 5 6 1018.3 - 0.0 - - 10 - - - -
22/06:00am 8.2 ENE 4 5 1018.3 - 0.0 - - 10 - - - -
22/05:30am 8.0 NE 3 5 1018.2 - 0.0 - - 10 - - - -
22/05:00am 8.1 NE 5 7 1018.4 - 0.0 - - 10 - - - -
22/04:30am 8.4 E 5 5 1018.6 - 0.0 - - 10 - - - -
22/04:00am 8.3 ENE 4 5 1018.7 - 0.0 - - 10 - - - -
22/03:30am 8.8 NE 5 7 1019.0 - 0.0 - - 10 - - - -
22/03:00am 9.9 NE 8 8 1019.1 - 0.0 - - 10 - - - -
22/02:30am 9.0 ENE 6 7 1019.6 - 0.0 - - 10 - - - -
22/02:00am 8.3 NNE 5 6 1019.8 - 0.0 - - 10 - - - -
22/01:30am 8.6 ENE 8 10 1019.5 - 0.0 - - 10 - - - -
22/01:00am 8.9 ENE 8 10 1019.9 - 0.0 - - 10 - - - -
22/12:30am 9.4 ENE 7 9 1020.1 - 0.0 - - 10 - - - -
22/12:00am 9.4 ENE 6 7 1020.5 - 0.0 - - 10 - - - -
 
Date/Time
EDT
Temp
°C
Wind Pressure Rain since
9am
mm
Weather Cloud Vis
km
Sea
Height
m
Swell
Dir  Spd
kts
Gust
kts
hPa Trend Height
m
Period
s
Dir
21/11:30pm 9.4 ENE 7 9 1020.4 - 0.0 - - 10 - - - -
21/11:00pm 9.8 NE 7 9 1020.4 - 0.0 - - 10 - - - -
21/10:30pm 10.1 ENE 7 9 1020.4 - 0.0 - - 10 - - - -
21/10:00pm 10.4 ENE 5 7 1020.4 - 0.0 - - 10 - - - -
21/09:30pm 11.8 NE 6 8 1020.2 - 0.0 - - 10 - - - -
21/09:00pm 13.4 NE 7 9 1020.2 - 0.0 - - 10 - - - -
21/08:30pm 15.2 WNW 6 9 1019.8 - 0.0 - - 10 - - - -
21/08:00pm 16.1 WNW 9 12 1019.3 - 0.0 - - 10 - - - -
21/07:30pm 17.0 WNW 9 12 1019.1 - 0.0 - - 10 - - - -
21/07:00pm 17.4 WNW 11 15 1018.7 - 0.0 - - 10 - - - -
21/06:30pm 17.7 W 13 16 1018.5 - 0.0 - - 10 - - - -
21/06:00pm 18.1 W 15 18 1018.6 - 0.0 - - 10 - - - -
21/05:30pm 18.4 W 16 20 1018.7 - 0.0 - - 10 - - - -
21/05:00pm 18.6 W 17 19 1018.6 - 0.0 - - 10 - - - -
21/04:30pm 18.6 W 16 18 1018.6 - 0.0 - - 10 - - - -
21/04:00pm 18.9 W 16 19 1018.7 - 0.0 - - 10 - - - -
21/03:30pm 18.2 W 16 20 1018.7 - 0.0 - - 10 - - - -
21/03:00pm 18.7 W 16 20 1018.7 - 0.0 - - 10 - - - -
21/02:30pm 18.3 W 16 20 1018.9 - 0.0 - Partly cloudy 10 - - - -
21/02:00pm 18.9 W 16 19 1018.8 - 0.0 - - 10 - - - -
21/01:30pm 18.6 W 14 18 1018.5 - 0.0 - - 10 - - - -
21/01:00pm 18.6 W 13 18 1018.5 - 0.0 - - 10 - - - -
21/12:30pm 18.5 W 14 17 1018.5 - 0.0 - - 10 - - - -
21/12:00pm 18.3 W 14 18 1018.8 - 0.0 - - 10 - - - -
21/11:30am 18.1 W 13 16 1018.6 - 0.0 - Partly cloudy 10 - - - -
21/11:00am 17.5 W 12 16 1018.7 - 0.0 - Partly cloudy 10 - - - -
21/10:30am 17.7 W 13 16 1018.7 - 0.0 - Partly cloudy 10 - - - -
21/10:00am 17.6 W 12 16 1018.6 - 0.0 - Partly cloudy 10 - - - -
21/09:30am 17.5 W 15 18 1018.2 - 0.0 - Partly cloudy 10 - - - -
21/09:00am 17.0 W 16 20 1017.8 - 0.6 - - 10 - - - -
21/08:30am 16.4 W 14 19 1017.4 - 0.6 - Partly cloudy 10 - - - -
21/08:00am 16.3 WNW 14 19 1017.1 - 0.6 - Partly cloudy 10 - - - -
21/07:30am 15.7 WNW 11 16 1016.7 - 0.6 - Partly cloudy 10 - - - -
21/07:00am 15.3 WNW 12 16 1016.3 - 0.6 - Partly cloudy 10 - - - -
21/06:30am 15.2 WNW 10 14 1015.8 - 0.6 - Partly cloudy 10 - - - -
21/06:00am 15.4 WNW 12 16 1015.7 - 0.6 - Cloudy 10 - - - -
21/05:30am 15.4 WNW 11 14 1015.3 - 0.6 - Cloudy 10 - - - -
21/05:00am 15.6 WNW 11 15 1015.1 - 0.6 - Cloudy 10 - - - -
21/04:30am 15.8 WNW 13 17 1014.8 - 0.6 - Cloudy 10 - - - -
21/04:00am 15.8 WNW 13 17 1014.5 - 0.6 - Cloudy 10 - - - -
21/03:30am 15.5 WNW 10 17 1014.0 - 0.6 - Partly cloudy 10 - - - -
21/03:00am 14.9 WNW 8 10 1013.7 - 0.6 - - 10 - - - -
21/02:30am 15.6 W 9 12 1013.4 - 0.6 - - 10 - - - -
21/02:00am 16.0 W 11 14 1013.3 - 0.6 - - 10 - - - -
21/01:30am 16.3 W 13 16 1013.4 - 0.6 - - 10 - - - -
21/01:00am 16.2 WNW 11 17 1013.4 - 0.6 - - 10 - - - -
21/12:30am 16.1 WNW 14 17 1013.3 - 0.6 - - 10 - - - -
21/12:00am 16.0 WNW 15 19 1013.2 - 0.6 - - 10 - - - -
 
Date/Time
EDT
Temp
°C
Wind Pressure Rain since
9am
mm
Weather Cloud Vis
km
Sea
Height
m
Swell
Dir  Spd
kts
Gust
kts
hPa Trend Height
m
Period
s
Dir
20/11:30pm 16.1 WNW 16 19 1013.0 - 0.6 - - 10 - - - -
20/11:00pm 16.1 WNW 17 22 1012.6 - 0.6 - - 10 - - - -

Other Formats:

Comma delimited format used in spreadsheet applications
http://www.bom.gov.au/fwo/IDT60701/IDT60701.94980.axf

JavaScript Object Notation format (JSON) in row-major order
http://www.bom.gov.au/fwo/IDT60701/IDT60701.94980.json